Glendora, New Jersey
Current Conditions -  °F | °C
As of 3:54 AM on Friday 21 Nov 2014 (Local Time) from KPHL Reporting Station
Clear Clear  
Wind Chill: 19°   Ceiling: Unl
Heat Index: 31°   Visibility: 10mi
Dew Point:   Wind: 17mph
Humidity: 35%   Direction: 290°WNW
Pressure: 30.18"   Gusts: NA
Location:  39.84°N, 75.07°W
Report Text: KPHL 210854Z 29015KT 10SM CLR M01/M14 A3018 RMK AO2 SLP220 T10061144 51023
Loading
Personal Weather Stations






























Interactive Weather Map New forecast layout! Learn more

10-Day Weather Forecast

Advertisements
Track Severe Weather on mobile